sensor_id;sensor_type;location;lat;lon;timestamp;P1;durP1;ratioP1;P2;durP2;ratioP2
9481;SDS011;4779;48.062;11.672;2023-11-21T00:02:24;5.80;;;1.40;;
9481;SDS011;4779;48.062;11.672;2023-11-21T00:04:53;4.80;;;1.50;;
9481;SDS011;4779;48.062;11.672;2023-11-21T00:07:20;5.50;;;1.70;;
9481;SDS011;4779;48.062;11.672;2023-11-21T00:09:47;4.33;;;1.20;;
9481;SDS011;4779;48.062;11.672;2023-11-21T00:12:15;5.10;;;1.70;;
9481;SDS011;4779;48.062;11.672;2023-11-21T00:14:42;3.87;;;1.30;;
9481;SDS011;4779;48.062;11.672;2023-11-21T00:17:09;5.03;;;1.50;;
9481;SDS011;4779;48.062;11.672;2023-11-21T00:19:36;3.73;;;1.40;;
9481;SDS011;4779;48.062;11.672;2023-11-21T00:22:04;4.37;;;1.60;;
9481;SDS011;4779;48.062;11.672;2023-11-21T00:24:32;3.70;;;1.50;;
9481;SDS011;4779;48.062;11.672;2023-11-21T00:26:59;4.23;;;2.07;;
9481;SDS011;4779;48.062;11.672;2023-11-21T00:29:26;5.00;;;1.83;;
9481;SDS011;4779;48.062;11.672;2023-11-21T00:31:54;4.83;;;1.70;;
9481;SDS011;4779;48.062;11.672;2023-11-21T00:34:21;2.60;;;1.47;;
9481;SDS011;4779;48.062;11.672;2023-11-21T00:36:48;2.53;;;1.13;;
9481;SDS011;4779;48.062;11.672;2023-11-21T00:39:18;5.13;;;1.60;;
9481;SDS011;4779;48.062;11.672;2023-11-21T00:41:49;2.97;;;1.37;;
9481;SDS011;4779;48.062;11.672;2023-11-21T00:44:16;2.47;;;1.40;;
9481;SDS011;4779;48.062;11.672;2023-11-21T00:46:43;3.10;;;1.77;;
9481;SDS011;4779;48.062;11.672;2023-11-21T00:49:10;4.33;;;1.50;;
9481;SDS011;4779;48.062;11.672;2023-11-21T00:51:37;5.70;;;1.50;;
9481;SDS011;4779;48.062;11.672;2023-11-21T00:54:04;2.03;;;1.23;;
9481;SDS011;4779;48.062;11.672;2023-11-21T00:56:33;7.47;;;2.10;;
9481;SDS011;4779;48.062;11.672;2023-11-21T00:59:00;5.53;;;1.83;;
9481;SDS011;4779;48.062;11.672;2023-11-21T01:01:30;2.60;;;1.57;;
9481;SDS011;4779;48.062;11.672;2023-11-21T01:03:57;4.97;;;1.57;;
9481;SDS011;4779;48.062;11.672;2023-11-21T01:06:24;4.40;;;1.70;;
9481;SDS011;4779;48.062;11.672;2023-11-21T01:08:51;4.07;;;1.37;;
9481;SDS011;4779;48.062;11.672;2023-11-21T01:11:18;4.00;;;1.40;;
9481;SDS011;4779;48.062;11.672;2023-11-21T01:13:46;4.67;;;1.80;;
9481;SDS011;4779;48.062;11.672;2023-11-21T01:16:13;2.83;;;1.47;;
9481;SDS011;4779;48.062;11.672;2023-11-21T01:18:40;4.10;;;1.40;;
9481;SDS011;4779;48.062;11.672;2023-11-21T01:21:07;4.57;;;1.60;;
9481;SDS011;4779;48.062;11.672;2023-11-21T01:23:34;3.90;;;1.90;;
9481;SDS011;4779;48.062;11.672;2023-11-21T01:26:01;4.00;;;1.50;;
9481;SDS011;4779;48.062;11.672;2023-11-21T01:28:28;4.13;;;1.50;;
9481;SDS011;4779;48.062;11.672;2023-11-21T01:30:57;3.03;;;1.40;;
9481;SDS011;4779;48.062;11.672;2023-11-21T01:33:24;3.87;;;1.73;;
9481;SDS011;4779;48.062;11.672;2023-11-21T01:35:51;5.03;;;1.57;;
9481;SDS011;4779;48.062;11.672;2023-11-21T01:38:20;4.57;;;1.67;;
9481;SDS011;4779;48.062;11.672;2023-11-21T01:40:47;2.77;;;1.20;;
9481;SDS011;4779;48.062;11.672;2023-11-21T01:43:14;2.60;;;1.30;;
9481;SDS011;4779;48.062;11.672;2023-11-21T01:45:41;6.07;;;2.03;;
9481;SDS011;4779;48.062;11.672;2023-11-21T01:48:11;4.80;;;1.40;;
9481;SDS011;4779;48.062;11.672;2023-11-21T01:50:41;4.47;;;1.90;;
9481;SDS011;4779;48.062;11.672;2023-11-21T01:53:10;5.20;;;1.77;;
9481;SDS011;4779;48.062;11.672;2023-11-21T01:55:39;5.00;;;1.87;;
9481;SDS011;4779;48.062;11.672;2023-11-21T01:58:07;3.30;;;1.33;;
9481;SDS011;4779;48.062;11.672;2023-11-21T02:00:36;4.57;;;1.50;;
9481;SDS011;4779;48.062;11.672;2023-11-21T02:03:03;3.80;;;1.30;;
9481;SDS011;4779;48.062;11.672;2023-11-21T02:05:33;3.97;;;1.70;;
9481;SDS011;4779;48.062;11.672;2023-11-21T02:08:01;3.70;;;1.63;;
9481;SDS011;4779;48.062;11.672;2023-11-21T02:10:29;4.00;;;1.50;;
9481;SDS011;4779;48.062;11.672;2023-11-21T02:12:57;3.87;;;1.33;;
9481;SDS011;4779;48.062;11.672;2023-11-21T02:15:26;4.87;;;1.87;;
9481;SDS011;4779;48.062;11.672;2023-11-21T02:17:54;3.50;;;1.77;;
9481;SDS011;4779;48.062;11.672;2023-11-21T02:20:23;5.87;;;1.67;;
9481;SDS011;4779;48.062;11.672;2023-11-21T02:22:53;5.70;;;1.60;;
9481;SDS011;4779;48.062;11.672;2023-11-21T02:25:23;4.13;;;1.80;;
9481;SDS011;4779;48.062;11.672;2023-11-21T02:27:50;3.77;;;1.30;;
9481;SDS011;4779;48.062;11.672;2023-11-21T02:30:17;4.23;;;1.60;;
9481;SDS011;4779;48.062;11.672;2023-11-21T02:32:44;5.10;;;1.60;;
9481;SDS011;4779;48.062;11.672;2023-11-21T02:35:11;3.90;;;1.70;;
9481;SDS011;4779;48.062;11.672;2023-11-21T02:37:38;4.47;;;2.27;;
9481;SDS011;4779;48.062;11.672;2023-11-21T02:40:08;4.17;;;1.80;;
9481;SDS011;4779;48.062;11.672;2023-11-21T02:42:37;6.63;;;2.47;;
9481;SDS011;4779;48.062;11.672;2023-11-21T02:45:06;4.60;;;1.80;;
9481;SDS011;4779;48.062;11.672;2023-11-21T02:47:33;4.20;;;1.97;;
9481;SDS011;4779;48.062;11.672;2023-11-21T02:50:01;4.27;;;1.80;;
9481;SDS011;4779;48.062;11.672;2023-11-21T02:52:28;4.23;;;1.73;;
9481;SDS011;4779;48.062;11.672;2023-11-21T02:54:58;3.20;;;1.43;;
9481;SDS011;4779;48.062;11.672;2023-11-21T02:57:26;3.47;;;1.40;;
9481;SDS011;4779;48.062;11.672;2023-11-21T02:59:53;4.83;;;1.60;;
9481;SDS011;4779;48.062;11.672;2023-11-21T03:02:20;5.47;;;1.80;;
9481;SDS011;4779;48.062;11.672;2023-11-21T03:04:48;6.23;;;1.70;;
9481;SDS011;4779;48.062;11.672;2023-11-21T03:07:15;4.67;;;1.80;;
9481;SDS011;4779;48.062;11.672;2023-11-21T03:09:44;4.63;;;1.77;;
9481;SDS011;4779;48.062;11.672;2023-11-21T03:12:11;6.27;;;2.03;;
9481;SDS011;4779;48.062;11.672;2023-11-21T03:14:40;4.70;;;1.70;;
9481;SDS011;4779;48.062;11.672;2023-11-21T03:17:07;6.40;;;1.77;;
9481;SDS011;4779;48.062;11.672;2023-11-21T03:19:34;4.03;;;1.67;;
9481;SDS011;4779;48.062;11.672;2023-11-21T03:22:01;6.43;;;1.63;;
9481;SDS011;4779;48.062;11.672;2023-11-21T03:24:29;4.97;;;1.70;;
9481;SDS011;4779;48.062;11.672;2023-11-21T03:26:56;2.17;;;1.40;;
9481;SDS011;4779;48.062;11.672;2023-11-21T03:29:23;1.83;;;1.10;;
9481;SDS011;4779;48.062;11.672;2023-11-21T03:31:51;6.30;;;2.17;;
9481;SDS011;4779;48.062;11.672;2023-11-21T03:34:22;3.10;;;1.43;;
9481;SDS011;4779;48.062;11.672;2023-11-21T03:36:51;4.00;;;1.37;;
9481;SDS011;4779;48.062;11.672;2023-11-21T03:39:19;3.63;;;1.27;;
9481;SDS011;4779;48.062;11.672;2023-11-21T03:41:46;3.77;;;1.37;;
9481;SDS011;4779;48.062;11.672;2023-11-21T03:44:13;2.80;;;1.13;;
9481;SDS011;4779;48.062;11.672;2023-11-21T03:46:40;3.60;;;1.20;;
9481;SDS011;4779;48.062;11.672;2023-11-21T03:49:08;2.67;;;1.10;;
9481;SDS011;4779;48.062;11.672;2023-11-21T03:51:36;2.97;;;1.27;;
9481;SDS011;4779;48.062;11.672;2023-11-21T03:54:03;3.50;;;1.30;;
9481;SDS011;4779;48.062;11.672;2023-11-21T03:56:30;4.30;;;1.53;;
9481;SDS011;4779;48.062;11.672;2023-11-21T03:58:56;4.00;;;1.10;;
9481;SDS011;4779;48.062;11.672;2023-11-21T04:01:24;3.33;;;1.40;;
9481;SDS011;4779;48.062;11.672;2023-11-21T04:03:51;3.37;;;1.20;;
9481;SDS011;4779;48.062;11.672;2023-11-21T04:06:19;3.70;;;1.33;;
9481;SDS011;4779;48.062;11.672;2023-11-21T04:08:46;2.83;;;1.10;;
9481;SDS011;4779;48.062;11.672;2023-11-21T04:11:13;3.07;;;1.17;;
9481;SDS011;4779;48.062;11.672;2023-11-21T04:13:40;3.67;;;1.20;;
9481;SDS011;4779;48.062;11.672;2023-11-21T04:16:08;4.00;;;1.10;;
9481;SDS011;4779;48.062;11.672;2023-11-21T04:18:36;3.87;;;1.20;;
9481;SDS011;4779;48.062;11.672;2023-11-21T04:21:03;2.43;;;1.00;;
9481;SDS011;4779;48.062;11.672;2023-11-21T04:23:32;3.20;;;1.10;;
9481;SDS011;4779;48.062;11.672;2023-11-21T04:26:00;4.60;;;1.03;;
9481;SDS011;4779;48.062;11.672;2023-11-21T04:28:27;2.43;;;1.20;;
9481;SDS011;4779;48.062;11.672;2023-11-21T04:30:54;2.20;;;0.73;;
9481;SDS011;4779;48.062;11.672;2023-11-21T04:33:21;1.87;;;1.00;;
9481;SDS011;4779;48.062;11.672;2023-11-21T04:35:48;4.03;;;1.00;;
9481;SDS011;4779;48.062;11.672;2023-11-21T04:38:15;2.43;;;1.10;;
9481;SDS011;4779;48.062;11.672;2023-11-21T04:40:43;2.07;;;1.30;;
9481;SDS011;4779;48.062;11.672;2023-11-21T04:43:10;3.27;;;1.30;;
9481;SDS011;4779;48.062;11.672;2023-11-21T04:45:37;2.70;;;1.03;;
9481;SDS011;4779;48.062;11.672;2023-11-21T04:48:06;2.23;;;0.90;;
9481;SDS011;4779;48.062;11.672;2023-11-21T04:50:33;1.90;;;0.80;;
9481;SDS011;4779;48.062;11.672;2023-11-21T04:53:00;2.10;;;0.93;;
9481;SDS011;4779;48.062;11.672;2023-11-21T04:55:27;2.60;;;1.10;;
9481;SDS011;4779;48.062;11.672;2023-11-21T04:57:56;2.20;;;1.20;;
9481;SDS011;4779;48.062;11.672;2023-11-21T05:00:22;2.07;;;0.93;;
9481;SDS011;4779;48.062;11.672;2023-11-21T05:02:50;2.77;;;1.10;;
9481;SDS011;4779;48.062;11.672;2023-11-21T05:05:17;2.33;;;0.97;;
9481;SDS011;4779;48.062;11.672;2023-11-21T05:07:44;0.87;;;0.80;;
9481;SDS011;4779;48.062;11.672;2023-11-21T05:10:11;2.60;;;0.87;;
9481;SDS011;4779;48.062;11.672;2023-11-21T05:12:40;2.17;;;1.27;;
9481;SDS011;4779;48.062;11.672;2023-11-21T05:15:08;1.87;;;0.90;;
9481;SDS011;4779;48.062;11.672;2023-11-21T05:17:36;2.60;;;1.00;;
9481;SDS011;4779;48.062;11.672;2023-11-21T05:20:04;3.37;;;1.00;;
9481;SDS011;4779;48.062;11.672;2023-11-21T05:22:34;3.40;;;1.23;;
9481;SDS011;4779;48.062;11.672;2023-11-21T05:25:01;2.40;;;1.23;;
9481;SDS011;4779;48.062;11.672;2023-11-21T05:27:28;3.50;;;1.00;;
9481;SDS011;4779;48.062;11.672;2023-11-21T05:29:55;2.33;;;1.07;;
9481;SDS011;4779;48.062;11.672;2023-11-21T05:32:24;2.97;;;1.20;;
9481;SDS011;4779;48.062;11.672;2023-11-21T05:34:52;1.90;;;1.00;;
9481;SDS011;4779;48.062;11.672;2023-11-21T05:37:19;4.00;;;1.40;;
9481;SDS011;4779;48.062;11.672;2023-11-21T05:39:46;0.93;;;0.80;;
9481;SDS011;4779;48.062;11.672;2023-11-21T05:42:13;2.23;;;1.30;;
9481;SDS011;4779;48.062;11.672;2023-11-21T05:44:41;2.77;;;1.00;;
9481;SDS011;4779;48.062;11.672;2023-11-21T05:47:09;2.07;;;0.90;;
9481;SDS011;4779;48.062;11.672;2023-11-21T05:49:37;1.43;;;1.20;;
9481;SDS011;4779;48.062;11.672;2023-11-21T05:52:04;3.43;;;1.13;;
9481;SDS011;4779;48.062;11.672;2023-11-21T05:54:32;2.23;;;1.10;;
9481;SDS011;4779;48.062;11.672;2023-11-21T05:56:59;2.33;;;1.27;;
9481;SDS011;4779;48.062;11.672;2023-11-21T05:59:26;3.00;;;1.23;;
9481;SDS011;4779;48.062;11.672;2023-11-21T06:01:53;4.60;;;1.60;;
9481;SDS011;4779;48.062;11.672;2023-11-21T06:04:20;3.67;;;1.30;;
9481;SDS011;4779;48.062;11.672;2023-11-21T06:06:51;2.63;;;1.33;;
9481;SDS011;4779;48.062;11.672;2023-11-21T06:09:19;3.90;;;1.10;;
9481;SDS011;4779;48.062;11.672;2023-11-21T06:11:46;1.77;;;1.17;;
9481;SDS011;4779;48.062;11.672;2023-11-21T06:14:13;3.13;;;1.20;;
9481;SDS011;4779;48.062;11.672;2023-11-21T06:16:43;3.80;;;1.20;;
9481;SDS011;4779;48.062;11.672;2023-11-21T06:19:10;3.57;;;1.37;;
9481;SDS011;4779;48.062;11.672;2023-11-21T06:21:38;3.93;;;1.37;;
9481;SDS011;4779;48.062;11.672;2023-11-21T06:24:07;3.63;;;1.43;;
9481;SDS011;4779;48.062;11.672;2023-11-21T06:26:34;4.43;;;1.57;;
9481;SDS011;4779;48.062;11.672;2023-11-21T06:29:01;2.63;;;1.67;;
9481;SDS011;4779;48.062;11.672;2023-11-21T06:31:29;2.83;;;1.30;;
9481;SDS011;4779;48.062;11.672;2023-11-21T06:33:58;7.80;;;2.03;;
9481;SDS011;4779;48.062;11.672;2023-11-21T06:36:25;4.37;;;1.40;;
9481;SDS011;4779;48.062;11.672;2023-11-21T06:38:52;4.47;;;1.63;;
9481;SDS011;4779;48.062;11.672;2023-11-21T06:41:21;5.27;;;1.50;;
9481;SDS011;4779;48.062;11.672;2023-11-21T06:43:48;3.97;;;1.70;;
9481;SDS011;4779;48.062;11.672;2023-11-21T06:46:15;3.10;;;1.90;;
9481;SDS011;4779;48.062;11.672;2023-11-21T06:48:44;4.97;;;1.67;;
9481;SDS011;4779;48.062;11.672;2023-11-21T06:51:11;2.17;;;1.30;;
9481;SDS011;4779;48.062;11.672;2023-11-21T06:53:38;3.13;;;1.80;;
9481;SDS011;4779;48.062;11.672;2023-11-21T06:56:14;2.77;;;1.47;;
9481;SDS011;4779;48.062;11.672;2023-11-21T06:58:43;3.07;;;1.70;;
9481;SDS011;4779;48.062;11.672;2023-11-21T07:01:11;3.80;;;1.90;;
9481;SDS011;4779;48.062;11.672;2023-11-21T07:03:40;4.00;;;2.17;;
9481;SDS011;4779;48.062;11.672;2023-11-21T07:06:07;2.80;;;1.50;;
9481;SDS011;4779;48.062;11.672;2023-11-21T07:08:35;4.90;;;2.83;;
9481;SDS011;4779;48.062;11.672;2023-11-21T07:11:02;9.00;;;6.00;;
9481;SDS011;4779;48.062;11.672;2023-11-21T07:13:29;5.37;;;3.50;;
9481;SDS011;4779;48.062;11.672;2023-11-21T07:15:58;8.00;;;4.80;;
9481;SDS011;4779;48.062;11.672;2023-11-21T07:18:26;6.47;;;4.73;;
9481;SDS011;4779;48.062;11.672;2023-11-21T07:20:53;6.47;;;5.00;;
9481;SDS011;4779;48.062;11.672;2023-11-21T07:23:20;8.00;;;5.20;;
9481;SDS011;4779;48.062;11.672;2023-11-21T07:25:47;6.97;;;4.30;;
9481;SDS011;4779;48.062;11.672;2023-11-21T07:28:14;6.73;;;3.80;;
9481;SDS011;4779;48.062;11.672;2023-11-21T07:30:41;4.93;;;3.10;;
9481;SDS011;4779;48.062;11.672;2023-11-21T07:33:10;5.57;;;3.70;;
9481;SDS011;4779;48.062;11.672;2023-11-21T07:35:37;8.07;;;4.93;;
9481;SDS011;4779;48.062;11.672;2023-11-21T07:38:04;4.10;;;2.30;;
9481;SDS011;4779;48.062;11.672;2023-11-21T07:40:31;3.97;;;2.67;;
9481;SDS011;4779;48.062;11.672;2023-11-21T07:42:58;4.30;;;3.33;;
9481;SDS011;4779;48.062;11.672;2023-11-21T07:45:25;3.70;;;2.70;;
9481;SDS011;4779;48.062;11.672;2023-11-21T07:47:53;4.93;;;2.10;;
9481;SDS011;4779;48.062;11.672;2023-11-21T07:50:22;3.07;;;2.00;;
9481;SDS011;4779;48.062;11.672;2023-11-21T07:52:49;3.03;;;1.70;;
9481;SDS011;4779;48.062;11.672;2023-11-21T07:55:16;4.17;;;2.20;;
9481;SDS011;4779;48.062;11.672;2023-11-21T07:57:44;3.73;;;2.17;;
9481;SDS011;4779;48.062;11.672;2023-11-21T08:00:11;4.33;;;2.27;;
9481;SDS011;4779;48.062;11.672;2023-11-21T08:02:40;4.33;;;2.33;;
9481;SDS011;4779;48.062;11.672;2023-11-21T08:05:11;3.97;;;2.20;;
9481;SDS011;4779;48.062;11.672;2023-11-21T08:07:39;3.63;;;1.60;;
9481;SDS011;4779;48.062;11.672;2023-11-21T08:10:07;2.97;;;1.87;;
9481;SDS011;4779;48.062;11.672;2023-11-21T08:12:36;2.60;;;1.60;;
9481;SDS011;4779;48.062;11.672;2023-11-21T08:15:04;2.47;;;1.00;;
9481;SDS011;4779;48.062;11.672;2023-11-21T08:17:32;1.67;;;1.13;;
9481;SDS011;4779;48.062;11.672;2023-11-21T08:20:00;1.80;;;1.13;;
9481;SDS011;4779;48.062;11.672;2023-11-21T08:22:28;2.70;;;0.93;;
9481;SDS011;4779;48.062;11.672;2023-11-21T08:24:57;3.03;;;1.30;;
9481;SDS011;4779;48.062;11.672;2023-11-21T08:27:24;1.47;;;1.33;;
9481;SDS011;4779;48.062;11.672;2023-11-21T08:29:51;2.40;;;1.40;;
9481;SDS011;4779;48.062;11.672;2023-11-21T08:32:19;2.90;;;1.03;;
9481;SDS011;4779;48.062;11.672;2023-11-21T08:34:46;3.37;;;1.00;;
9481;SDS011;4779;48.062;11.672;2023-11-21T08:37:15;1.13;;;0.90;;
9481;SDS011;4779;48.062;11.672;2023-11-21T08:39:43;1.90;;;1.10;;
9481;SDS011;4779;48.062;11.672;2023-11-21T08:42:11;1.43;;;0.80;;
9481;SDS011;4779;48.062;11.672;2023-11-21T08:44:38;1.63;;;0.93;;
9481;SDS011;4779;48.062;11.672;2023-11-21T08:47:05;1.67;;;0.87;;
9481;SDS011;4779;48.062;11.672;2023-11-21T08:49:32;1.00;;;0.70;;
9481;SDS011;4779;48.062;11.672;2023-11-21T08:51:59;2.70;;;0.83;;
9481;SDS011;4779;48.062;11.672;2023-11-21T08:54:26;1.83;;;0.80;;
9481;SDS011;4779;48.062;11.672;2023-11-21T08:56:53;6.07;;;1.23;;
9481;SDS011;4779;48.062;11.672;2023-11-21T08:59:24;1.13;;;0.90;;
9481;SDS011;4779;48.062;11.672;2023-11-21T09:01:51;1.27;;;0.60;;
9481;SDS011;4779;48.062;11.672;2023-11-21T09:04:18;3.13;;;1.10;;
9481;SDS011;4779;48.062;11.672;2023-11-21T09:06:45;2.00;;;0.80;;
9481;SDS011;4779;48.062;11.672;2023-11-21T09:09:12;2.50;;;0.90;;
9481;SDS011;4779;48.062;11.672;2023-11-21T09:11:39;1.67;;;0.70;;
9481;SDS011;4779;48.062;11.672;2023-11-21T09:14:06;1.60;;;1.07;;
9481;SDS011;4779;48.062;11.672;2023-11-21T09:16:35;1.20;;;0.67;;
9481;SDS011;4779;48.062;11.672;2023-11-21T09:19:02;1.90;;;0.90;;
9481;SDS011;4779;48.062;11.672;2023-11-21T09:21:30;2.60;;;0.90;;
9481;SDS011;4779;48.062;11.672;2023-11-21T09:23:58;1.10;;;0.73;;
9481;SDS011;4779;48.062;11.672;2023-11-21T09:26:25;1.97;;;0.80;;
9481;SDS011;4779;48.062;11.672;2023-11-21T09:28:52;0.80;;;0.70;;
9481;SDS011;4779;48.062;11.672;2023-11-21T09:31:21;1.93;;;0.90;;
9481;SDS011;4779;48.062;11.672;2023-11-21T09:33:50;0.97;;;0.70;;
9481;SDS011;4779;48.062;11.672;2023-11-21T09:36:18;2.57;;;0.80;;
9481;SDS011;4779;48.062;11.672;2023-11-21T09:38:47;2.00;;;0.70;;
9481;SDS011;4779;48.062;11.672;2023-11-21T09:41:16;1.40;;;0.70;;
9481;SDS011;4779;48.062;11.672;2023-11-21T09:43:47;1.20;;;0.80;;
9481;SDS011;4779;48.062;11.672;2023-11-21T09:46:21;2.00;;;0.90;;
9481;SDS011;4779;48.062;11.672;2023-11-21T09:48:54;1.80;;;0.80;;
9481;SDS011;4779;48.062;11.672;2023-11-21T09:51:25;2.73;;;0.70;;
9481;SDS011;4779;48.062;11.672;2023-11-21T09:53:58;1.50;;;0.70;;
9481;SDS011;4779;48.062;11.672;2023-11-21T09:56:32;4.60;;;2.40;;
9481;SDS011;4779;48.062;11.672;2023-11-21T09:58:59;6.53;;;3.40;;
9481;SDS011;4779;48.062;11.672;2023-11-21T10:01:31;2.60;;;1.40;;
9481;SDS011;4779;48.062;11.672;2023-11-21T10:04:00;1.77;;;0.90;;
9481;SDS011;4779;48.062;11.672;2023-11-21T10:06:27;24.23;;;11.07;;
9481;SDS011;4779;48.062;11.672;2023-11-21T10:08:56;10.97;;;5.63;;
9481;SDS011;4779;48.062;11.672;2023-11-21T10:11:25;5.20;;;2.30;;
9481;SDS011;4779;48.062;11.672;2023-11-21T10:13:56;3.97;;;1.17;;
9481;SDS011;4779;48.062;11.672;2023-11-21T10:16:26;1.80;;;0.87;;
9481;SDS011;4779;48.062;11.672;2023-11-21T10:18:54;1.27;;;0.80;;
9481;SDS011;4779;48.062;11.672;2023-11-21T10:21:23;1.70;;;1.10;;
9481;SDS011;4779;48.062;11.672;2023-11-21T10:23:50;2.60;;;0.73;;
9481;SDS011;4779;48.062;11.672;2023-11-21T10:26:19;4.40;;;0.77;;
9481;SDS011;4779;48.062;11.672;2023-11-21T10:28:55;1.80;;;1.10;;
9481;SDS011;4779;48.062;11.672;2023-11-21T10:31:23;1.97;;;0.80;;
9481;SDS011;4779;48.062;11.672;2023-11-21T10:33:50;1.20;;;0.60;;
9481;SDS011;4779;48.062;11.672;2023-11-21T10:36:29;1.23;;;1.03;;
9481;SDS011;4779;48.062;11.672;2023-11-21T10:38:56;1.90;;;0.83;;
9481;SDS011;4779;48.062;11.672;2023-11-21T10:41:23;3.23;;;1.10;;
9481;SDS011;4779;48.062;11.672;2023-11-21T10:43:52;1.43;;;1.10;;
9481;SDS011;4779;48.062;11.672;2023-11-21T10:46:21;2.20;;;0.90;;
9481;SDS011;4779;48.062;11.672;2023-11-21T10:48:52;1.63;;;1.07;;
9481;SDS011;4779;48.062;11.672;2023-11-21T10:51:21;1.30;;;1.10;;
9481;SDS011;4779;48.062;11.672;2023-11-21T10:53:50;1.57;;;0.90;;
9481;SDS011;4779;48.062;11.672;2023-11-21T10:56:18;1.37;;;0.90;;
9481;SDS011;4779;48.062;11.672;2023-11-21T10:58:47;2.57;;;1.23;;
9481;SDS011;4779;48.062;11.672;2023-11-21T11:01:15;2.10;;;1.23;;
9481;SDS011;4779;48.062;11.672;2023-11-21T11:03:46;1.73;;;0.90;;
9481;SDS011;4779;48.062;11.672;2023-11-21T11:06:15;2.60;;;1.30;;
9481;SDS011;4779;48.062;11.672;2023-11-21T11:08:42;2.70;;;1.20;;
9481;SDS011;4779;48.062;11.672;2023-11-21T11:11:12;3.30;;;1.57;;
9481;SDS011;4779;48.062;11.672;2023-11-21T11:13:40;2.53;;;1.20;;
9481;SDS011;4779;48.062;11.672;2023-11-21T11:16:11;3.27;;;0.90;;
9481;SDS011;4779;48.062;11.672;2023-11-21T11:18:42;1.30;;;0.90;;
9481;SDS011;4779;48.062;11.672;2023-11-21T11:21:11;1.97;;;0.83;;
9481;SDS011;4779;48.062;11.672;2023-11-21T11:23:51;1.60;;;0.90;;
9481;SDS011;4779;48.062;11.672;2023-11-21T11:26:37;2.07;;;0.80;;
9481;SDS011;4779;48.062;11.672;2023-11-21T11:29:14;2.37;;;0.80;;
9481;SDS011;4779;48.062;11.672;2023-11-21T11:31:51;2.47;;;0.97;;
9481;SDS011;4779;48.062;11.672;2023-11-21T11:34:28;3.03;;;1.13;;
9481;SDS011;4779;48.062;11.672;2023-11-21T11:36:59;1.33;;;1.23;;
9481;SDS011;4779;48.062;11.672;2023-11-21T11:39:29;2.83;;;0.90;;
9481;SDS011;4779;48.062;11.672;2023-11-21T11:41:59;2.53;;;1.27;;
9481;SDS011;4779;48.062;11.672;2023-11-21T11:44:46;1.67;;;1.10;;
9481;SDS011;4779;48.062;11.672;2023-11-21T11:47:16;1.37;;;1.13;;
9481;SDS011;4779;48.062;11.672;2023-11-21T11:50:02;2.50;;;1.20;;
9481;SDS011;4779;48.062;11.672;2023-11-21T11:52:36;3.27;;;1.00;;
9481;SDS011;4779;48.062;11.672;2023-11-21T11:55:05;3.43;;;1.10;;
9481;SDS011;4779;48.062;11.672;2023-11-21T11:57:36;2.23;;;0.93;;
9481;SDS011;4779;48.062;11.672;2023-11-21T12:00:11;1.60;;;1.23;;
9481;SDS011;4779;48.062;11.672;2023-11-21T12:02:44;2.73;;;1.57;;
9481;SDS011;4779;48.062;11.672;2023-11-21T12:05:13;3.13;;;1.07;;
9481;SDS011;4779;48.062;11.672;2023-11-21T12:07:44;2.53;;;0.80;;
9481;SDS011;4779;48.062;11.672;2023-11-21T12:10:13;1.83;;;0.90;;
9481;SDS011;4779;48.062;11.672;2023-11-21T12:12:47;2.90;;;1.00;;
9481;SDS011;4779;48.062;11.672;2023-11-21T12:15:17;1.80;;;0.80;;
9481;SDS011;4779;48.062;11.672;2023-11-21T12:17:45;1.10;;;0.67;;
9481;SDS011;4779;48.062;11.672;2023-11-21T12:20:12;1.87;;;0.80;;
9481;SDS011;4779;48.062;11.672;2023-11-21T12:22:43;0.77;;;0.70;;
9481;SDS011;4779;48.062;11.672;2023-11-21T12:25:12;2.13;;;0.97;;
9481;SDS011;4779;48.062;11.672;2023-11-21T12:27:41;2.27;;;1.10;;
9481;SDS011;4779;48.062;11.672;2023-11-21T12:30:12;1.47;;;1.03;;
9481;SDS011;4779;48.062;11.672;2023-11-21T12:32:41;2.13;;;1.10;;
9481;SDS011;4779;48.062;11.672;2023-11-21T12:35:08;2.43;;;1.10;;
9481;SDS011;4779;48.062;11.672;2023-11-21T12:37:36;0.77;;;0.67;;
9481;SDS011;4779;48.062;11.672;2023-11-21T12:40:05;3.57;;;0.93;;
9481;SDS011;4779;48.062;11.672;2023-11-21T12:42:33;3.17;;;1.20;;
9481;SDS011;4779;48.062;11.672;2023-11-21T12:45:08;1.43;;;0.80;;
9481;SDS011;4779;48.062;11.672;2023-11-21T12:47:41;1.70;;;0.83;;
9481;SDS011;4779;48.062;11.672;2023-11-21T12:50:08;1.87;;;0.80;;
9481;SDS011;4779;48.062;11.672;2023-11-21T12:52:40;1.43;;;0.90;;
9481;SDS011;4779;48.062;11.672;2023-11-21T12:55:09;2.40;;;0.87;;
9481;SDS011;4779;48.062;11.672;2023-11-21T12:57:41;2.30;;;1.00;;
9481;SDS011;4779;48.062;11.672;2023-11-21T13:00:09;1.30;;;0.73;;
9481;SDS011;4779;48.062;11.672;2023-11-21T13:02:56;2.07;;;1.00;;
9481;SDS011;4779;48.062;11.672;2023-11-21T13:05:29;1.83;;;0.87;;
9481;SDS011;4779;48.062;11.672;2023-11-21T13:08:21;4.40;;;1.30;;
9481;SDS011;4779;48.062;11.672;2023-11-21T13:11:06;1.30;;;1.00;;
9481;SDS011;4779;48.062;11.672;2023-11-21T13:13:39;2.27;;;0.80;;
9481;SDS011;4779;48.062;11.672;2023-11-21T13:16:18;3.20;;;0.80;;
9481;SDS011;4779;48.062;11.672;2023-11-21T13:18:57;0.87;;;0.80;;
9481;SDS011;4779;48.062;11.672;2023-11-21T13:21:34;1.73;;;0.90;;
9481;SDS011;4779;48.062;11.672;2023-11-21T13:24:07;1.37;;;1.03;;
9481;SDS011;4779;48.062;11.672;2023-11-21T13:26:38;1.33;;;0.90;;
9481;SDS011;4779;48.062;11.672;2023-11-21T13:29:05;1.43;;;0.90;;
9481;SDS011;4779;48.062;11.672;2023-11-21T13:31:33;1.53;;;0.73;;
9481;SDS011;4779;48.062;11.672;2023-11-21T13:34:06;0.60;;;0.60;;
9481;SDS011;4779;48.062;11.672;2023-11-21T13:36:33;0.63;;;0.50;;
9481;SDS011;4779;48.062;11.672;2023-11-21T13:39:00;0.77;;;0.40;;
9481;SDS011;4779;48.062;11.672;2023-11-21T13:41:32;0.30;;;0.30;;
9481;SDS011;4779;48.062;11.672;2023-11-21T13:43:59;0.47;;;0.40;;
9481;SDS011;4779;48.062;11.672;2023-11-21T13:46:39;0.30;;;0.30;;
9481;SDS011;4779;48.062;11.672;2023-11-21T13:49:08;0.30;;;0.30;;
9481;SDS011;4779;48.062;11.672;2023-11-21T13:51:35;0.30;;;0.30;;
9481;SDS011;4779;48.062;11.672;2023-11-21T13:54:06;0.30;;;0.23;;
9481;SDS011;4779;48.062;11.672;2023-11-21T13:56:34;0.33;;;0.33;;
9481;SDS011;4779;48.062;11.672;2023-11-21T13:59:02;0.40;;;0.40;;
9481;SDS011;4779;48.062;11.672;2023-11-21T14:01:45;1.80;;;0.40;;
9481;SDS011;4779;48.062;11.672;2023-11-21T14:04:21;0.60;;;0.47;;
9481;SDS011;4779;48.062;11.672;2023-11-21T14:07:04;0.37;;;0.37;;
9481;SDS011;4779;48.062;11.672;2023-11-21T14:09:45;0.43;;;0.43;;
9481;SDS011;4779;48.062;11.672;2023-11-21T14:12:20;0.43;;;0.40;;
9481;SDS011;4779;48.062;11.672;2023-11-21T14:14:47;0.67;;;0.40;;
9481;SDS011;4779;48.062;11.672;2023-11-21T14:17:14;0.93;;;0.60;;
9481;SDS011;4779;48.062;11.672;2023-11-21T14:19:43;0.73;;;0.60;;
9481;SDS011;4779;48.062;11.672;2023-11-21T14:22:10;1.27;;;0.60;;
9481;SDS011;4779;48.062;11.672;2023-11-21T14:24:37;1.67;;;0.77;;
9481;SDS011;4779;48.062;11.672;2023-11-21T14:27:09;1.03;;;0.70;;
9481;SDS011;4779;48.062;11.672;2023-11-21T14:29:36;0.67;;;0.60;;
9481;SDS011;4779;48.062;11.672;2023-11-21T14:32:07;0.90;;;0.90;;
9481;SDS011;4779;48.062;11.672;2023-11-21T14:34:35;0.90;;;0.90;;
9481;SDS011;4779;48.062;11.672;2023-11-21T14:37:04;1.30;;;1.20;;
9481;SDS011;4779;48.062;11.672;2023-11-21T14:39:32;1.63;;;1.53;;
9481;SDS011;4779;48.062;11.672;2023-11-21T14:42:05;1.50;;;1.20;;
9481;SDS011;4779;48.062;11.672;2023-11-21T14:44:33;1.53;;;1.43;;
9481;SDS011;4779;48.062;11.672;2023-11-21T14:47:04;1.63;;;1.07;;
9481;SDS011;4779;48.062;11.672;2023-11-21T14:49:39;1.13;;;1.00;;
9481;SDS011;4779;48.062;11.672;2023-11-21T14:52:18;2.20;;;0.97;;
9481;SDS011;4779;48.062;11.672;2023-11-21T14:57:45;1.70;;;1.00;;
9481;SDS011;4779;48.062;11.672;2023-11-21T15:00:19;1.90;;;1.20;;
9481;SDS011;4779;48.062;11.672;2023-11-21T15:03:09;1.50;;;1.30;;
9481;SDS011;4779;48.062;11.672;2023-11-21T15:05:46;1.20;;;1.10;;
9481;SDS011;4779;48.062;11.672;2023-11-21T15:08:15;1.30;;;1.20;;
9481;SDS011;4779;48.062;11.672;2023-11-21T15:10:46;0.90;;;0.80;;
9481;SDS011;4779;48.062;11.672;2023-11-21T15:13:18;1.43;;;0.70;;
9481;SDS011;4779;48.062;11.672;2023-11-21T15:15:47;1.27;;;1.00;;